createdAt,value
2023-04-28T00:00:36.737Z,12.70
2023-04-28T00:03:04.658Z,12.80
2023-04-28T00:05:31.686Z,12.80
2023-04-28T00:07:58.694Z,12.80
2023-04-28T00:10:26.884Z,12.80
2023-04-28T00:12:53.908Z,12.70
2023-04-28T00:15:21.088Z,12.80
2023-04-28T00:17:49.054Z,12.80
2023-04-28T00:20:16.264Z,12.80
2023-04-28T00:22:43.357Z,12.80
2023-04-28T00:25:10.500Z,12.80
2023-04-28T00:27:37.713Z,12.70
2023-04-28T00:30:05.211Z,12.70
2023-04-28T00:32:32.200Z,12.70
2023-04-28T00:34:59.021Z,12.80
2023-04-28T00:37:25.893Z,12.80
2023-04-28T00:39:56.826Z,12.90
2023-04-28T00:42:24.158Z,13.00
2023-04-28T00:44:51.104Z,13.00
2023-04-28T00:47:19.243Z,13.00
2023-04-28T00:49:47.685Z,13.00
2023-04-28T00:52:14.587Z,13.00
2023-04-28T00:54:42.938Z,13.00
2023-04-28T00:57:10.917Z,13.00
2023-04-28T00:59:38.430Z,13.10
2023-04-28T01:02:07.736Z,13.20
2023-04-28T01:04:36.240Z,13.30
2023-04-28T01:07:04.086Z,13.30
2023-04-28T01:09:31.046Z,13.20
2023-04-28T01:11:58.489Z,13.10
2023-04-28T01:14:25.793Z,13.20
2023-04-28T01:16:54.795Z,13.10
2023-04-28T01:19:22.522Z,13.00
2023-04-28T01:21:50.510Z,13.10
2023-04-28T01:24:18.147Z,13.10
2023-04-28T01:26:46.274Z,13.10
2023-04-28T01:29:13.760Z,13.10
2023-04-28T01:31:44.524Z,12.80
2023-04-28T01:34:11.549Z,12.70
2023-04-28T01:36:38.514Z,12.60
2023-04-28T01:39:06.070Z,12.60
2023-04-28T01:41:35.745Z,12.60
2023-04-28T01:44:02.822Z,12.60
2023-04-28T01:46:29.930Z,12.60
2023-04-28T01:48:56.939Z,12.50
2023-04-28T01:51:23.962Z,12.50
2023-04-28T01:53:50.980Z,12.50
2023-04-28T01:56:17.978Z,12.50
2023-04-28T01:58:45.122Z,12.50
2023-04-28T02:01:13.080Z,12.50
2023-04-28T02:03:40.933Z,12.50
2023-04-28T02:06:07.848Z,12.60
2023-04-28T02:08:34.766Z,12.60
2023-04-28T02:11:01.801Z,12.70
2023-04-28T02:13:28.590Z,12.60
2023-04-28T02:15:55.691Z,12.60
2023-04-28T02:18:22.690Z,12.70
2023-04-28T02:20:49.560Z,12.70
2023-04-28T02:23:16.687Z,12.80
2023-04-28T02:25:43.487Z,12.90
2023-04-28T02:28:10.358Z,12.90
2023-04-28T02:30:38.206Z,12.80
2023-04-28T02:33:05.231Z,12.90
2023-04-28T02:35:32.410Z,12.80
2023-04-28T02:38:00.141Z,12.80
2023-04-28T02:40:27.191Z,12.90
2023-04-28T02:42:54.272Z,13.00
2023-04-28T02:45:21.349Z,13.10
2023-04-28T02:47:48.390Z,13.20
2023-04-28T02:50:15.423Z,13.20
2023-04-28T02:52:42.467Z,13.30
2023-04-28T02:55:09.801Z,13.30
2023-04-28T02:57:36.947Z,13.40
2023-04-28T03:00:05.591Z,13.40
2023-04-28T03:02:32.597Z,13.60
2023-04-28T03:04:59.735Z,13.60
2023-04-28T03:07:26.723Z,13.50
2023-04-28T03:09:53.548Z,13.70
2023-04-28T03:12:20.511Z,13.60
2023-04-28T03:14:48.088Z,13.50
2023-04-28T03:17:15.200Z,13.70
2023-04-28T03:19:42.191Z,13.70
2023-04-28T03:22:09.020Z,13.80
2023-04-28T03:24:36.030Z,13.80
2023-04-28T03:27:03.783Z,13.90
2023-04-28T03:29:30.647Z,13.90
2023-04-28T03:31:57.674Z,13.80
2023-04-28T03:34:34.850Z,13.80
2023-04-28T03:37:03.481Z,13.80
2023-04-28T03:39:30.784Z,13.90
2023-04-28T03:41:58.100Z,13.90
2023-04-28T03:44:25.276Z,14.00
2023-04-28T03:46:52.220Z,14.10
2023-04-28T03:49:19.453Z,14.20
2023-04-28T03:51:47.478Z,14.20
2023-04-28T03:54:14.481Z,14.20
2023-04-28T03:56:41.943Z,14.20
2023-04-28T03:59:12.532Z,14.10
2023-04-28T04:01:39.443Z,14.30
2023-04-28T04:04:07.094Z,14.20
2023-04-28T04:06:34.754Z,14.20
2023-04-28T04:09:01.916Z,14.20
2023-04-28T04:11:28.707Z,14.20
2023-04-28T04:13:55.719Z,14.30
2023-04-28T04:16:22.983Z,14.20
2023-04-28T04:18:49.976Z,14.20
2023-04-28T04:21:16.905Z,14.20
2023-04-28T04:23:43.717Z,14.50
2023-04-28T04:26:10.786Z,14.50
2023-04-28T04:28:37.777Z,14.60
2023-04-28T04:31:04.731Z,14.60
2023-04-28T04:33:31.812Z,14.70
2023-04-28T04:35:58.959Z,14.60
2023-04-28T04:38:26.138Z,14.70
2023-04-28T04:40:53.358Z,14.70
2023-04-28T04:43:20.926Z,14.80
2023-04-28T04:45:48.282Z,14.70
2023-04-28T04:48:15.823Z,14.80
2023-04-28T04:50:43.863Z,14.70
2023-04-28T04:53:13.980Z,14.70
2023-04-28T04:55:43.385Z,14.70
2023-04-28T04:58:10.664Z,14.70
2023-04-28T05:00:37.951Z,14.80
2023-04-28T05:03:06.529Z,15.00
2023-04-28T05:05:34.770Z,15.00
2023-04-28T05:08:02.586Z,15.10
2023-04-28T05:10:30.012Z,15.10
2023-04-28T05:12:56.821Z,15.00
2023-04-28T05:15:23.818Z,15.10
2023-04-28T05:17:50.766Z,15.10
2023-04-28T05:20:17.778Z,15.10
2023-04-28T05:22:44.672Z,15.00
2023-04-28T05:25:11.761Z,15.00
2023-04-28T05:27:39.935Z,15.10
2023-04-28T05:30:10.835Z,15.20
2023-04-28T05:32:39.224Z,15.30
2023-04-28T05:35:06.408Z,15.40
2023-04-28T05:37:33.309Z,15.40
2023-04-28T05:40:00.557Z,15.10
2023-04-28T05:42:27.534Z,15.20
2023-04-28T05:44:54.791Z,15.30
2023-04-28T05:47:21.894Z,15.40
2023-04-28T05:49:48.779Z,15.40
2023-04-28T05:52:15.873Z,15.40
2023-04-28T05:54:43.037Z,15.50
2023-04-28T05:57:10.030Z,15.50
2023-04-28T05:59:36.903Z,15.60
2023-04-28T06:02:03.816Z,15.60
2023-04-28T06:04:32.370Z,15.60
2023-04-28T06:06:59.970Z,15.50
2023-04-28T06:09:27.003Z,15.50
2023-04-28T06:11:54.037Z,15.50
2023-04-28T06:14:22.467Z,15.40
2023-04-28T06:16:50.185Z,15.40
2023-04-28T06:19:19.039Z,15.40
2023-04-28T06:21:46.629Z,15.30
2023-04-28T06:24:13.558Z,15.30
2023-04-28T06:26:40.416Z,15.30
2023-04-28T06:29:07.488Z,15.40
2023-04-28T06:31:34.660Z,15.60
2023-04-28T06:34:01.583Z,15.80
2023-04-28T06:36:28.535Z,15.90
2023-04-28T06:38:55.949Z,16.00
2023-04-28T06:41:23.096Z,16.00
2023-04-28T06:43:51.063Z,16.10
2023-04-28T06:46:18.107Z,16.10
2023-04-28T06:48:45.055Z,16.10
2023-04-28T06:51:12.030Z,16.00
2023-04-28T06:53:39.086Z,16.10
2023-04-28T06:56:07.354Z,16.10
2023-04-28T06:58:35.468Z,16.10
2023-04-28T07:01:04.263Z,16.20
2023-04-28T07:03:32.873Z,16.30
2023-04-28T07:05:59.986Z,16.40
2023-04-28T07:08:27.117Z,16.30
2023-04-28T07:10:54.329Z,16.40
2023-04-28T07:13:21.343Z,16.40
2023-04-28T07:15:48.420Z,16.30
2023-04-28T07:18:15.709Z,16.30
2023-04-28T07:20:42.640Z,16.40
2023-04-28T07:23:10.238Z,16.50
2023-04-28T07:25:37.304Z,16.40
2023-04-28T07:28:05.827Z,16.40
2023-04-28T07:30:33.030Z,16.30
2023-04-28T07:33:00.547Z,16.20
2023-04-28T07:35:27.571Z,16.10
2023-04-28T07:37:54.969Z,16.00
2023-04-28T07:40:22.320Z,16.00
2023-04-28T07:42:49.415Z,16.00
2023-04-28T07:45:16.960Z,16.10
2023-04-28T07:47:44.096Z,16.20
2023-04-28T07:50:12.324Z,16.30
2023-04-28T07:52:39.688Z,16.20
2023-04-28T07:55:07.076Z,16.00
2023-04-28T07:57:34.061Z,16.00
2023-04-28T08:00:01.187Z,16.20
2023-04-28T08:02:29.919Z,16.20
2023-04-28T08:04:57.091Z,16.30
2023-04-28T08:07:24.808Z,16.50
2023-04-28T08:09:53.297Z,16.50
2023-04-28T08:12:20.921Z,16.50
2023-04-28T08:14:48.731Z,16.60
2023-04-28T08:17:15.677Z,16.50
2023-04-28T08:19:45.062Z,16.30
2023-04-28T08:22:12.755Z,16.30
2023-04-28T08:24:39.736Z,16.40
2023-04-28T08:27:06.732Z,16.30
2023-04-28T08:29:33.979Z,16.20
2023-04-28T08:32:04.806Z,16.10
2023-04-28T08:34:31.799Z,16.10
2023-04-28T08:36:59.008Z,16.20
2023-04-28T08:39:26.969Z,16.20
2023-04-28T08:41:54.468Z,16.20
2023-04-28T08:44:23.686Z,16.20
2023-04-28T08:46:54.925Z,16.20
2023-04-28T08:49:27.964Z,16.20
2023-04-28T08:52:00.171Z,16.00
2023-04-28T08:54:32.153Z,16.00
2023-04-28T08:57:00.294Z,16.00
2023-04-28T08:59:27.604Z,16.10
2023-04-28T09:01:54.746Z,16.10
2023-04-28T09:04:22.544Z,16.20
2023-04-28T09:06:49.698Z,16.00
2023-04-28T09:09:25.477Z,16.00
2023-04-28T09:11:58.430Z,15.90
2023-04-28T09:14:26.854Z,15.80
2023-04-28T09:16:54.118Z,15.80
2023-04-28T09:19:21.605Z,15.80
2023-04-28T09:21:58.152Z,15.80
2023-04-28T09:24:41.739Z,15.80
2023-04-28T09:27:12.172Z,15.60
2023-04-28T09:29:39.632Z,15.60
2023-04-28T09:32:20.947Z,15.50
2023-04-28T09:34:49.059Z,15.50
2023-04-28T09:37:21.556Z,15.40
2023-04-28T09:39:53.805Z,15.40
2023-04-28T09:42:43.986Z,15.60
2023-04-28T09:45:13.702Z,15.70
2023-04-28T09:47:43.322Z,15.60
2023-04-28T09:50:15.292Z,15.70
2023-04-28T09:52:44.996Z,15.70
2023-04-28T09:55:12.934Z,15.60
2023-04-28T09:57:40.777Z,15.60
2023-04-28T10:00:09.557Z,15.60
2023-04-28T10:05:10.222Z,15.40
2023-04-28T10:07:39.289Z,15.50
2023-04-28T10:10:08.099Z,15.60
2023-04-28T10:12:38.320Z,15.80
2023-04-28T10:15:07.738Z,15.90
2023-04-28T10:17:36.933Z,15.90
2023-04-28T10:20:05.351Z,15.90
2023-04-28T10:22:47.566Z,15.90
2023-04-28T10:25:35.346Z,16.00
2023-04-28T10:28:07.460Z,15.90
2023-04-28T10:30:35.263Z,15.90
2023-04-28T10:33:14.956Z,15.80
2023-04-28T10:35:44.398Z,15.80
2023-04-28T10:38:16.630Z,15.70
2023-04-28T10:41:02.657Z,15.70
2023-04-28T10:43:30.685Z,15.60
2023-04-28T10:46:01.662Z,15.60
2023-04-28T10:48:35.242Z,15.50
2023-04-28T10:51:09.421Z,15.40
2023-04-28T10:53:46.133Z,15.60
2023-04-28T10:56:25.340Z,15.70
2023-04-28T10:59:00.279Z,15.80
2023-04-28T11:01:29.834Z,16.00
2023-04-28T11:04:03.246Z,16.00
2023-04-28T11:06:36.577Z,16.10
2023-04-28T11:09:24.573Z,16.10
2023-04-28T11:11:54.684Z,15.90
2023-04-28T11:14:21.779Z,15.70
2023-04-28T11:16:50.847Z,15.90
2023-04-28T11:19:23.502Z,15.80
2023-04-28T11:21:51.283Z,15.90
2023-04-28T11:24:18.656Z,15.90
2023-04-28T11:26:45.854Z,15.70
2023-04-28T11:29:15.018Z,15.90
2023-04-28T11:31:51.518Z,15.80
2023-04-28T11:34:22.531Z,15.90
2023-04-28T11:36:49.419Z,16.00
2023-04-28T11:39:16.610Z,15.80
2023-04-28T11:41:45.437Z,15.70
2023-04-28T11:44:21.735Z,15.70
2023-04-28T11:46:56.428Z,15.90
2023-04-28T11:49:30.717Z,15.90
2023-04-28T11:52:04.640Z,16.00
2023-04-28T11:54:32.384Z,15.90
2023-04-28T11:57:01.261Z,16.10
2023-04-28T11:59:30.884Z,16.20
2023-04-28T12:01:59.929Z,16.20
2023-04-28T12:04:30.291Z,16.20
2023-04-28T12:07:06.391Z,16.30
2023-04-28T12:09:35.571Z,16.20
2023-04-28T12:12:04.754Z,16.10
2023-04-28T12:14:35.579Z,16.00
2023-04-28T12:17:02.886Z,16.20
2023-04-28T12:19:29.730Z,16.30
2023-04-28T12:22:07.674Z,16.40
2023-04-28T12:24:39.213Z,16.50
2023-04-28T12:27:25.383Z,16.50
2023-04-28T12:29:52.564Z,16.40
2023-04-28T12:32:20.439Z,16.30
2023-04-28T12:34:47.635Z,16.40
2023-04-28T12:37:15.010Z,16.60
2023-04-28T12:39:43.033Z,16.60
2023-04-28T12:42:10.232Z,16.80
2023-04-28T12:44:38.151Z,16.80
2023-04-28T12:47:07.658Z,16.90
2023-04-28T12:49:35.918Z,16.80
2023-04-28T12:52:03.766Z,16.80
2023-04-28T12:54:31.358Z,16.90
2023-04-28T12:56:58.699Z,17.10
2023-04-28T12:59:25.912Z,17.10
2023-04-28T13:01:53.268Z,17.10
2023-04-28T13:04:20.860Z,17.00
2023-04-28T13:06:49.015Z,17.10
2023-04-28T13:09:16.423Z,17.20
2023-04-28T13:11:44.018Z,17.30
2023-04-28T13:14:11.124Z,17.40
2023-04-28T13:16:38.339Z,17.40
2023-04-28T13:19:09.776Z,17.30
2023-04-28T13:21:39.345Z,17.20
2023-04-28T13:24:06.780Z,17.10
2023-04-28T13:26:34.570Z,17.10
2023-04-28T13:29:02.569Z,17.10
2023-04-28T13:31:32.757Z,17.30
2023-04-28T13:34:02.144Z,17.20
2023-04-28T13:36:38.730Z,17.10
2023-04-28T13:39:06.432Z,17.20
2023-04-28T13:41:33.351Z,17.30
2023-04-28T13:44:00.226Z,17.20
2023-04-28T13:46:28.210Z,17.00
2023-04-28T13:48:55.933Z,17.20
2023-04-28T13:51:23.698Z,17.00
2023-04-28T13:53:51.531Z,16.70
2023-04-28T13:56:18.421Z,16.50
2023-04-28T13:58:45.636Z,16.50
2023-04-28T14:01:12.616Z,16.40
2023-04-28T14:03:40.678Z,16.40
2023-04-28T14:06:08.334Z,16.60
2023-04-28T14:08:35.239Z,16.60
2023-04-28T14:11:02.170Z,16.70
2023-04-28T14:13:29.814Z,16.80
2023-04-28T14:15:59.328Z,16.70
2023-04-28T14:18:27.785Z,17.00
2023-04-28T14:20:55.464Z,17.10
2023-04-28T14:23:25.838Z,17.00
2023-04-28T14:25:57.044Z,16.90
2023-04-28T14:28:24.244Z,16.80
2023-04-28T14:30:51.562Z,16.80
2023-04-28T14:33:18.452Z,16.80
2023-04-28T14:35:45.371Z,16.70
2023-04-28T14:38:13.959Z,16.50
2023-04-28T14:40:42.931Z,16.60
2023-04-28T14:43:10.305Z,16.50
2023-04-28T14:45:38.247Z,16.50
2023-04-28T14:48:07.058Z,16.50
2023-04-28T14:50:34.570Z,16.30
2023-04-28T14:53:05.631Z,16.10
2023-04-28T14:55:33.563Z,16.00
2023-04-28T14:58:00.538Z,16.00
2023-04-28T15:00:27.497Z,15.80
2023-04-28T15:02:55.033Z,15.70
2023-04-28T15:05:23.624Z,15.50
2023-04-28T15:07:53.053Z,15.60
2023-04-28T15:10:20.001Z,15.70
2023-04-28T15:12:48.736Z,15.80
2023-04-28T15:15:15.971Z,16.00
2023-04-28T15:17:43.759Z,16.00
2023-04-28T15:20:11.443Z,16.10
2023-04-28T15:22:38.606Z,16.20
2023-04-28T15:25:06.292Z,16.30
2023-04-28T15:27:33.371Z,16.50
2023-04-28T15:30:00.508Z,16.30
2023-04-28T15:32:30.342Z,16.40
2023-04-28T15:34:57.656Z,16.20
2023-04-28T15:37:37.058Z,16.30
2023-04-28T15:40:12.275Z,16.00
2023-04-28T15:42:42.202Z,15.80
2023-04-28T15:45:13.409Z,15.90
2023-04-28T15:47:40.696Z,16.10
2023-04-28T15:50:11.886Z,16.20
2023-04-28T15:52:40.795Z,16.10
2023-04-28T15:55:09.085Z,15.80
2023-04-28T15:57:37.032Z,15.70
2023-04-28T16:00:06.403Z,15.60
2023-04-28T16:02:34.054Z,15.60
2023-04-28T16:05:05.329Z,15.40
2023-04-28T16:07:38.138Z,15.30
2023-04-28T16:10:08.270Z,15.30
2023-04-28T16:12:35.952Z,15.40
2023-04-28T16:15:03.534Z,15.60
2023-04-28T16:17:30.906Z,15.70
2023-04-28T16:19:57.954Z,15.90
2023-04-28T16:22:26.078Z,16.00
2023-04-28T16:24:53.960Z,15.90
2023-04-28T16:27:20.995Z,15.80
2023-04-28T16:29:48.170Z,15.90
2023-04-28T16:32:15.785Z,15.90
2023-04-28T16:34:43.083Z,15.80
2023-04-28T16:37:11.714Z,16.00
2023-04-28T16:39:38.947Z,15.90
2023-04-28T16:42:06.260Z,15.90
2023-04-28T16:44:33.358Z,15.90
2023-04-28T16:47:00.879Z,15.90
2023-04-28T16:49:28.225Z,15.90
2023-04-28T16:52:00.627Z,15.90
2023-04-28T16:54:28.787Z,16.10
2023-04-28T16:56:56.772Z,16.10
2023-04-28T16:59:26.654Z,16.30
2023-04-28T17:01:53.877Z,16.20
2023-04-28T17:04:21.814Z,16.30
2023-04-28T17:06:49.791Z,16.40
2023-04-28T17:09:21.168Z,16.00
2023-04-28T17:11:48.720Z,15.90
2023-04-28T17:14:16.498Z,15.90
2023-04-28T17:16:46.384Z,16.00
2023-04-28T17:19:14.905Z,16.00
2023-04-28T17:21:42.019Z,16.10
2023-04-28T17:24:08.997Z,16.10
2023-04-28T17:26:36.517Z,16.20
2023-04-28T17:29:05.042Z,16.20
2023-04-28T17:31:32.251Z,16.00
2023-04-28T17:34:00.601Z,16.00
2023-04-28T17:36:28.647Z,16.00
2023-04-28T17:38:59.097Z,16.10
2023-04-28T17:41:26.387Z,16.20
2023-04-28T17:43:53.778Z,16.20
2023-04-28T17:46:22.093Z,16.20
2023-04-28T17:48:52.077Z,16.00
2023-04-28T17:51:23.059Z,16.00
2023-04-28T17:53:50.046Z,16.00
2023-04-28T17:56:17.112Z,15.70
2023-04-28T17:58:44.231Z,15.70
2023-04-28T18:01:11.871Z,15.90
2023-04-28T18:03:45.636Z,16.00
2023-04-28T18:06:14.152Z,16.00
2023-04-28T18:08:41.586Z,16.10
2023-04-28T18:11:10.214Z,15.90
2023-04-28T18:13:37.428Z,15.90
2023-04-28T18:16:08.405Z,15.90
2023-04-28T18:18:36.872Z,15.80
2023-04-28T18:21:03.994Z,15.50
2023-04-28T18:23:31.140Z,15.70
2023-04-28T18:26:01.408Z,15.60
2023-04-28T18:28:31.384Z,15.80
2023-04-28T18:30:58.481Z,15.80
2023-04-28T18:33:28.710Z,15.80
2023-04-28T18:36:05.533Z,15.50
2023-04-28T18:38:35.274Z,15.40
2023-04-28T18:41:16.291Z,15.20
2023-04-28T18:43:44.607Z,15.40
2023-04-28T18:46:11.866Z,15.30
2023-04-28T18:48:40.093Z,15.40
2023-04-28T18:51:07.786Z,15.30
2023-04-28T18:53:36.235Z,15.30
2023-04-28T18:56:03.576Z,15.30
2023-04-28T18:58:31.179Z,15.30
2023-04-28T19:00:58.287Z,15.40
2023-04-28T19:03:27.168Z,15.40
2023-04-28T19:05:55.424Z,15.20
2023-04-28T19:08:22.392Z,15.20
2023-04-28T19:10:50.998Z,15.30
2023-04-28T19:13:18.056Z,15.40
2023-04-28T19:15:44.999Z,15.40
2023-04-28T19:18:12.636Z,15.50
2023-04-28T19:20:42.178Z,15.60
2023-04-28T19:23:09.328Z,15.80
2023-04-28T19:25:37.105Z,15.80
2023-04-28T19:28:04.474Z,15.80
2023-04-28T19:30:31.477Z,15.80
2023-04-28T19:32:58.680Z,15.80
2023-04-28T19:35:26.201Z,15.90
2023-04-28T19:37:54.098Z,15.90
2023-04-28T19:40:22.204Z,15.80
2023-04-28T19:42:49.248Z,15.80
2023-04-28T19:45:17.445Z,15.60
2023-04-28T19:47:44.858Z,15.70
2023-04-28T19:50:11.952Z,15.70
2023-04-28T19:52:38.981Z,15.60
2023-04-28T19:55:07.170Z,15.70
2023-04-28T19:57:34.147Z,15.70
2023-04-28T20:00:01.035Z,15.70
2023-04-28T20:02:28.353Z,15.50
2023-04-28T20:04:56.605Z,15.40
2023-04-28T20:07:23.404Z,15.30
2023-04-28T20:09:52.435Z,15.20
2023-04-28T20:12:19.643Z,15.10
2023-04-28T20:14:47.379Z,15.10
2023-04-28T20:17:16.265Z,15.20
2023-04-28T20:19:51.481Z,15.00
2023-04-28T20:22:22.447Z,15.00
2023-04-28T20:24:49.308Z,15.00
2023-04-28T20:27:16.214Z,14.90
2023-04-28T20:29:43.314Z,14.90
2023-04-28T20:32:10.687Z,14.90
2023-04-28T20:34:38.521Z,14.80
2023-04-28T20:37:06.724Z,14.70
2023-04-28T20:39:33.970Z,14.60
2023-04-28T20:42:02.455Z,14.50
2023-04-28T20:44:29.526Z,14.40
2023-04-28T20:46:57.178Z,14.30
2023-04-28T20:49:24.574Z,14.30
2023-04-28T20:51:51.637Z,14.20
2023-04-28T20:54:18.684Z,14.20
2023-04-28T20:56:45.867Z,14.20
2023-04-28T20:59:12.965Z,14.10
2023-04-28T21:01:41.031Z,14.00
2023-04-28T21:04:08.899Z,14.10
2023-04-28T21:06:36.005Z,14.00
2023-04-28T21:09:03.001Z,14.20
2023-04-28T21:11:29.853Z,14.20
2023-04-28T21:13:57.500Z,14.20
2023-04-28T21:16:24.703Z,14.10
2023-04-28T21:18:51.712Z,14.20
2023-04-28T21:21:18.797Z,14.40
2023-04-28T21:23:46.015Z,14.30
2023-04-28T21:26:13.501Z,14.30
2023-04-28T21:28:41.701Z,14.20
2023-04-28T21:31:08.689Z,14.20
2023-04-28T21:33:35.629Z,14.20
2023-04-28T21:36:09.998Z,14.10
2023-04-28T21:38:38.045Z,14.20
2023-04-28T21:41:05.604Z,14.40
2023-04-28T21:43:32.500Z,14.50
2023-04-28T21:45:59.526Z,14.40
2023-04-28T21:48:26.522Z,14.20
2023-04-28T21:50:53.541Z,14.20
2023-04-28T21:53:20.685Z,14.10
2023-04-28T21:55:48.161Z,14.10
2023-04-28T21:58:15.311Z,14.00
2023-04-28T22:00:49.546Z,14.00
2023-04-28T22:03:19.933Z,13.90
2023-04-28T22:05:47.710Z,13.90
2023-04-28T22:08:15.613Z,13.80
2023-04-28T22:10:45.465Z,13.80
2023-04-28T22:13:13.777Z,13.70
2023-04-28T22:15:41.768Z,13.50
2023-04-28T22:18:08.975Z,13.50
2023-04-28T22:20:36.090Z,13.50
2023-04-28T22:23:03.002Z,13.50
2023-04-28T22:25:30.005Z,13.50
2023-04-28T22:27:56.911Z,13.50
2023-04-28T22:30:25.953Z,13.40
2023-04-28T22:32:53.501Z,13.40
2023-04-28T22:35:20.577Z,13.40
2023-04-28T22:37:47.513Z,13.30
2023-04-28T22:40:14.793Z,13.20
2023-04-28T22:42:42.698Z,13.10
2023-04-28T22:45:10.851Z,13.10
2023-04-28T22:47:40.820Z,13.00
2023-04-28T22:50:12.657Z,13.00
2023-04-28T22:52:40.160Z,13.00
2023-04-28T22:55:07.708Z,13.10
2023-04-28T22:57:34.877Z,13.10
2023-04-28T23:00:02.265Z,13.10
2023-04-28T23:02:30.604Z,13.20
2023-04-28T23:04:57.898Z,13.30
2023-04-28T23:07:25.073Z,13.40
2023-04-28T23:09:52.440Z,13.50
2023-04-28T23:12:19.626Z,13.40
2023-04-28T23:14:46.560Z,13.40
2023-04-28T23:17:13.460Z,13.30
2023-04-28T23:19:40.857Z,13.40
2023-04-28T23:22:08.598Z,13.40
2023-04-28T23:24:37.103Z,13.60
2023-04-28T23:27:04.795Z,13.70
2023-04-28T23:29:32.174Z,13.80
2023-04-28T23:31:59.501Z,13.80
2023-04-28T23:34:26.717Z,13.80
2023-04-28T23:36:53.554Z,13.80
2023-04-28T23:39:20.415Z,13.80
2023-04-28T23:41:47.450Z,13.60
2023-04-28T23:44:14.452Z,13.60
2023-04-28T23:46:41.688Z,13.80
2023-04-28T23:49:08.526Z,13.80
2023-04-28T23:51:36.056Z,13.80
2023-04-28T23:54:03.765Z,13.70
2023-04-28T23:56:31.796Z,13.60
2023-04-28T23:58:58.801Z,13.60
